Главная страница
METAR-TAF:

METAR-TAF

Аэропорты :

Гаррисберг, Пенсильвания, США

широта: 40-13-02N, долгота: 076-51-05W, высота над уровнем моря: 106 м

Текущие метеонаблюдения

Эта сводка был подготовлена 42 минут назад, в 14:56 UTC
Ветер 6 Узел от северный
Температура 20°C
Влажность 32%
Давление 1025 hPa
Видимость: 16.1 км
ясное небо

METAR: KCXY 141456Z 35006KT 10SM CLR 20/03 A3028 RMK AO2 SLP254 T02000028 58001

Время: 11:38 (15:38 UTC)


TAF: отсутствует

Метеонаблюдения и прогнозы для более 4000 аэропортов (сводки METAR и TAF).

Имеющиеся станции представлены на карте желтыми и красными точками.

Чтобы увидеть название станции, наведите на нее мышь.

Затем щелкните, чтобы увидеть метеонаблюдения и метеопрогнозы.

Управление картой: чтобы увеличить масштаб, щелкните зеленые кнопки с черным крестиком; чтобы уменьшить масштаб, щелкните зеленую кнопку с тире; для просмотра соседних карт щелкайте зеленые стрелки.


METAR-TAF: